sensor_id;sensor_type;location;lat;lon;timestamp;P1;durP1;ratioP1;P2;durP2;ratioP2
30048;SDS011;16879;50.852;15.602;2024-01-30T00:01:15;194.88;;;81.88;;
30048;SDS011;16879;50.852;15.602;2024-01-30T00:03:41;173.85;;;75.70;;
30048;SDS011;16879;50.852;15.602;2024-01-30T00:06:07;175.88;;;77.30;;
30048;SDS011;16879;50.852;15.602;2024-01-30T00:08:34;172.90;;;79.95;;
30048;SDS011;16879;50.852;15.602;2024-01-30T00:11:00;153.40;;;65.47;;
30048;SDS011;16879;50.852;15.602;2024-01-30T00:13:26;183.02;;;73.72;;
30048;SDS011;16879;50.852;15.602;2024-01-30T00:15:52;164.45;;;69.30;;
30048;SDS011;16879;50.852;15.602;2024-01-30T00:18:19;161.55;;;69.25;;
30048;SDS011;16879;50.852;15.602;2024-01-30T00:20:45;147.25;;;66.50;;
30048;SDS011;16879;50.852;15.602;2024-01-30T00:23:10;150.00;;;65.22;;
30048;SDS011;16879;50.852;15.602;2024-01-30T00:25:36;156.10;;;67.63;;
30048;SDS011;16879;50.852;15.602;2024-01-30T00:28:09;145.80;;;63.60;;
30048;SDS011;16879;50.852;15.602;2024-01-30T00:30:35;145.13;;;64.78;;
30048;SDS011;16879;50.852;15.602;2024-01-30T00:33:02;131.07;;;57.72;;
30048;SDS011;16879;50.852;15.602;2024-01-30T00:35:28;129.77;;;54.95;;
30048;SDS011;16879;50.852;15.602;2024-01-30T00:37:54;139.10;;;58.53;;
30048;SDS011;16879;50.852;15.602;2024-01-30T00:40:21;137.27;;;55.53;;
30048;SDS011;16879;50.852;15.602;2024-01-30T00:42:47;128.27;;;54.22;;
30048;SDS011;16879;50.852;15.602;2024-01-30T00:45:16;125.53;;;54.05;;
30048;SDS011;16879;50.852;15.602;2024-01-30T00:47:42;112.40;;;52.92;;
30048;SDS011;16879;50.852;15.602;2024-01-30T00:50:08;117.57;;;52.58;;
30048;SDS011;16879;50.852;15.602;2024-01-30T00:52:34;111.28;;;49.83;;
30048;SDS011;16879;50.852;15.602;2024-01-30T00:55:00;109.38;;;47.67;;
30048;SDS011;16879;50.852;15.602;2024-01-30T00:57:27;126.88;;;53.15;;
30048;SDS011;16879;50.852;15.602;2024-01-30T00:59:53;129.48;;;54.10;;
30048;SDS011;16879;50.852;15.602;2024-01-30T01:02:20;143.60;;;58.67;;
30048;SDS011;16879;50.852;15.602;2024-01-30T01:04:46;161.65;;;60.58;;
30048;SDS011;16879;50.852;15.602;2024-01-30T01:07:12;131.60;;;53.28;;
30048;SDS011;16879;50.852;15.602;2024-01-30T01:09:38;126.00;;;55.15;;
30048;SDS011;16879;50.852;15.602;2024-01-30T01:12:04;124.22;;;52.65;;
30048;SDS011;16879;50.852;15.602;2024-01-30T01:14:30;113.20;;;48.88;;
30048;SDS011;16879;50.852;15.602;2024-01-30T01:16:56;109.80;;;50.70;;
30048;SDS011;16879;50.852;15.602;2024-01-30T01:19:22;100.80;;;47.55;;
30048;SDS011;16879;50.852;15.602;2024-01-30T01:21:48;90.25;;;43.50;;
30048;SDS011;16879;50.852;15.602;2024-01-30T01:24:14;83.30;;;39.42;;
30048;SDS011;16879;50.852;15.602;2024-01-30T01:26:40;88.88;;;41.45;;
30048;SDS011;16879;50.852;15.602;2024-01-30T01:29:06;106.57;;;47.05;;
30048;SDS011;16879;50.852;15.602;2024-01-30T01:31:37;92.57;;;45.03;;
30048;SDS011;16879;50.852;15.602;2024-01-30T01:34:08;92.63;;;43.92;;
30048;SDS011;16879;50.852;15.602;2024-01-30T01:36:37;89.78;;;40.03;;
30048;SDS011;16879;50.852;15.602;2024-01-30T01:39:04;88.65;;;40.15;;
30048;SDS011;16879;50.852;15.602;2024-01-30T01:41:30;89.25;;;40.30;;
30048;SDS011;16879;50.852;15.602;2024-01-30T01:43:57;110.25;;;45.15;;
30048;SDS011;16879;50.852;15.602;2024-01-30T01:46:23;88.70;;;39.03;;
30048;SDS011;16879;50.852;15.602;2024-01-30T01:48:49;97.50;;;43.47;;
30048;SDS011;16879;50.852;15.602;2024-01-30T01:51:15;91.10;;;42.55;;
30048;SDS011;16879;50.852;15.602;2024-01-30T01:53:41;69.72;;;36.28;;
30048;SDS011;16879;50.852;15.602;2024-01-30T01:56:08;58.88;;;31.45;;
30048;SDS011;16879;50.852;15.602;2024-01-30T01:58:34;66.88;;;34.03;;
30048;SDS011;16879;50.852;15.602;2024-01-30T02:01:02;66.95;;;36.13;;
30048;SDS011;16879;50.852;15.602;2024-01-30T02:03:28;69.63;;;34.50;;
30048;SDS011;16879;50.852;15.602;2024-01-30T02:05:55;74.38;;;34.58;;
30048;SDS011;16879;50.852;15.602;2024-01-30T02:08:22;62.83;;;32.17;;
30048;SDS011;16879;50.852;15.602;2024-01-30T02:10:49;67.18;;;33.17;;
30048;SDS011;16879;50.852;15.602;2024-01-30T02:13:15;62.78;;;34.88;;
30048;SDS011;16879;50.852;15.602;2024-01-30T02:15:41;64.28;;;31.70;;
30048;SDS011;16879;50.852;15.602;2024-01-30T02:18:06;79.93;;;38.03;;
30048;SDS011;16879;50.852;15.602;2024-01-30T02:20:33;64.25;;;31.52;;
30048;SDS011;16879;50.852;15.602;2024-01-30T02:23:01;53.80;;;29.33;;
30048;SDS011;16879;50.852;15.602;2024-01-30T02:25:35;61.05;;;30.98;;
30048;SDS011;16879;50.852;15.602;2024-01-30T02:28:02;58.72;;;32.05;;
30048;SDS011;16879;50.852;15.602;2024-01-30T02:30:28;59.10;;;27.38;;
30048;SDS011;16879;50.852;15.602;2024-01-30T02:32:54;60.42;;;29.70;;
30048;SDS011;16879;50.852;15.602;2024-01-30T02:35:20;58.13;;;28.83;;
30048;SDS011;16879;50.852;15.602;2024-01-30T02:37:46;59.92;;;30.25;;
30048;SDS011;16879;50.852;15.602;2024-01-30T02:40:12;60.25;;;30.05;;
30048;SDS011;16879;50.852;15.602;2024-01-30T02:42:38;51.35;;;25.92;;
30048;SDS011;16879;50.852;15.602;2024-01-30T02:45:04;51.35;;;26.15;;
30048;SDS011;16879;50.852;15.602;2024-01-30T02:47:30;50.00;;;22.52;;
30048;SDS011;16879;50.852;15.602;2024-01-30T02:49:57;38.88;;;21.42;;
30048;SDS011;16879;50.852;15.602;2024-01-30T02:52:23;41.50;;;22.27;;
30048;SDS011;16879;50.852;15.602;2024-01-30T02:54:48;38.63;;;19.40;;
30048;SDS011;16879;50.852;15.602;2024-01-30T02:57:14;47.03;;;21.38;;
30048;SDS011;16879;50.852;15.602;2024-01-30T02:59:40;39.20;;;19.75;;
30048;SDS011;16879;50.852;15.602;2024-01-30T03:02:07;32.90;;;18.35;;
30048;SDS011;16879;50.852;15.602;2024-01-30T03:04:32;33.63;;;18.48;;
30048;SDS011;16879;50.852;15.602;2024-01-30T03:06:58;40.17;;;19.63;;
30048;SDS011;16879;50.852;15.602;2024-01-30T03:09:24;34.97;;;18.80;;
30048;SDS011;16879;50.852;15.602;2024-01-30T03:11:50;43.55;;;19.40;;
30048;SDS011;16879;50.852;15.602;2024-01-30T03:14:16;32.10;;;17.92;;
30048;SDS011;16879;50.852;15.602;2024-01-30T03:16:42;36.15;;;17.27;;
30048;SDS011;16879;50.852;15.602;2024-01-30T03:19:08;32.58;;;17.20;;
30048;SDS011;16879;50.852;15.602;2024-01-30T03:21:34;37.03;;;17.75;;
30048;SDS011;16879;50.852;15.602;2024-01-30T03:24:00;37.45;;;19.90;;
30048;SDS011;16879;50.852;15.602;2024-01-30T03:26:26;37.40;;;17.23;;
30048;SDS011;16879;50.852;15.602;2024-01-30T03:28:52;43.92;;;20.23;;
30048;SDS011;16879;50.852;15.602;2024-01-30T03:31:18;37.08;;;19.77;;
30048;SDS011;16879;50.852;15.602;2024-01-30T03:33:44;32.22;;;15.45;;
30048;SDS011;16879;50.852;15.602;2024-01-30T03:36:10;42.42;;;18.92;;
30048;SDS011;16879;50.852;15.602;2024-01-30T03:38:36;31.67;;;16.90;;
30048;SDS011;16879;50.852;15.602;2024-01-30T03:41:02;31.83;;;17.88;;
30048;SDS011;16879;50.852;15.602;2024-01-30T03:43:28;29.42;;;16.33;;
30048;SDS011;16879;50.852;15.602;2024-01-30T03:45:54;32.08;;;16.00;;
30048;SDS011;16879;50.852;15.602;2024-01-30T03:48:20;55.03;;;30.15;;
30048;SDS011;16879;50.852;15.602;2024-01-30T03:50:46;44.53;;;24.25;;
30048;SDS011;16879;50.852;15.602;2024-01-30T03:53:12;45.00;;;26.65;;
30048;SDS011;16879;50.852;15.602;2024-01-30T03:55:38;48.25;;;27.10;;
30048;SDS011;16879;50.852;15.602;2024-01-30T03:58:04;33.25;;;19.27;;
30048;SDS011;16879;50.852;15.602;2024-01-30T04:00:30;38.33;;;20.90;;
30048;SDS011;16879;50.852;15.602;2024-01-30T04:02:56;30.75;;;19.05;;
30048;SDS011;16879;50.852;15.602;2024-01-30T04:05:22;34.65;;;18.80;;
30048;SDS011;16879;50.852;15.602;2024-01-30T04:07:48;30.15;;;17.15;;
30048;SDS011;16879;50.852;15.602;2024-01-30T04:10:14;32.38;;;17.15;;
30048;SDS011;16879;50.852;15.602;2024-01-30T04:12:40;51.55;;;26.33;;
30048;SDS011;16879;50.852;15.602;2024-01-30T04:15:06;31.95;;;17.17;;
30048;SDS011;16879;50.852;15.602;2024-01-30T04:17:32;30.05;;;16.90;;
30048;SDS011;16879;50.852;15.602;2024-01-30T04:19:59;37.00;;;22.38;;
30048;SDS011;16879;50.852;15.602;2024-01-30T04:22:25;35.50;;;19.17;;
30048;SDS011;16879;50.852;15.602;2024-01-30T04:24:51;41.42;;;24.00;;
30048;SDS011;16879;50.852;15.602;2024-01-30T04:27:16;46.30;;;25.70;;
30048;SDS011;16879;50.852;15.602;2024-01-30T04:29:42;46.38;;;28.83;;
30048;SDS011;16879;50.852;15.602;2024-01-30T04:32:09;40.28;;;25.02;;
30048;SDS011;16879;50.852;15.602;2024-01-30T04:34:36;31.60;;;21.38;;
30048;SDS011;16879;50.852;15.602;2024-01-30T04:37:02;44.55;;;27.23;;
30048;SDS011;16879;50.852;15.602;2024-01-30T04:39:28;49.90;;;25.38;;
30048;SDS011;16879;50.852;15.602;2024-01-30T04:41:54;48.15;;;23.65;;
30048;SDS011;16879;50.852;15.602;2024-01-30T04:44:20;58.83;;;25.25;;
30048;SDS011;16879;50.852;15.602;2024-01-30T04:46:46;66.03;;;28.48;;
30048;SDS011;16879;50.852;15.602;2024-01-30T04:49:12;58.08;;;25.38;;
30048;SDS011;16879;50.852;15.602;2024-01-30T04:51:38;56.33;;;26.15;;
30048;SDS011;16879;50.852;15.602;2024-01-30T04:54:04;54.75;;;28.88;;
30048;SDS011;16879;50.852;15.602;2024-01-30T04:56:30;64.00;;;29.45;;
30048;SDS011;16879;50.852;15.602;2024-01-30T04:58:56;56.63;;;27.42;;
30048;SDS011;16879;50.852;15.602;2024-01-30T05:01:22;63.17;;;25.80;;
30048;SDS011;16879;50.852;15.602;2024-01-30T05:03:48;69.80;;;29.17;;
30048;SDS011;16879;50.852;15.602;2024-01-30T05:06:23;84.80;;;33.75;;
30048;SDS011;16879;50.852;15.602;2024-01-30T05:08:52;64.57;;;27.70;;
30048;SDS011;16879;50.852;15.602;2024-01-30T05:11:18;92.70;;;43.03;;
30048;SDS011;16879;50.852;15.602;2024-01-30T05:13:44;103.97;;;51.97;;
30048;SDS011;16879;50.852;15.602;2024-01-30T05:16:10;109.20;;;51.60;;
30048;SDS011;16879;50.852;15.602;2024-01-30T05:18:36;113.53;;;55.75;;
30048;SDS011;16879;50.852;15.602;2024-01-30T05:21:05;94.65;;;40.53;;
30048;SDS011;16879;50.852;15.602;2024-01-30T05:23:31;89.80;;;39.17;;
30048;SDS011;16879;50.852;15.602;2024-01-30T05:25:57;91.78;;;40.33;;
30048;SDS011;16879;50.852;15.602;2024-01-30T05:28:24;79.45;;;35.83;;
30048;SDS011;16879;50.852;15.602;2024-01-30T05:30:52;92.28;;;40.22;;
30048;SDS011;16879;50.852;15.602;2024-01-30T05:33:18;79.28;;;38.65;;
30048;SDS011;16879;50.852;15.602;2024-01-30T05:35:44;75.25;;;33.83;;
30048;SDS011;16879;50.852;15.602;2024-01-30T05:38:11;73.72;;;35.50;;
30048;SDS011;16879;50.852;15.602;2024-01-30T05:40:37;69.90;;;31.50;;
30048;SDS011;16879;50.852;15.602;2024-01-30T05:43:03;90.20;;;39.00;;
30048;SDS011;16879;50.852;15.602;2024-01-30T05:45:30;80.35;;;39.28;;
30048;SDS011;16879;50.852;15.602;2024-01-30T05:47:56;93.10;;;41.25;;
30048;SDS011;16879;50.852;15.602;2024-01-30T05:50:22;84.55;;;36.08;;
30048;SDS011;16879;50.852;15.602;2024-01-30T05:52:50;119.30;;;49.80;;
30048;SDS011;16879;50.852;15.602;2024-01-30T05:55:16;170.65;;;64.90;;
30048;SDS011;16879;50.852;15.602;2024-01-30T05:57:42;214.65;;;80.00;;
30048;SDS011;16879;50.852;15.602;2024-01-30T06:00:08;192.85;;;72.75;;
30048;SDS011;16879;50.852;15.602;2024-01-30T06:02:35;185.35;;;67.18;;
30048;SDS011;16879;50.852;15.602;2024-01-30T06:05:01;140.02;;;55.65;;
30048;SDS011;16879;50.852;15.602;2024-01-30T06:07:28;160.50;;;55.90;;
30048;SDS011;16879;50.852;15.602;2024-01-30T06:09:54;136.30;;;50.78;;
30048;SDS011;16879;50.852;15.602;2024-01-30T06:12:20;174.85;;;64.93;;
30048;SDS011;16879;50.852;15.602;2024-01-30T06:14:46;215.32;;;77.47;;
30048;SDS011;16879;50.852;15.602;2024-01-30T06:17:12;165.80;;;67.00;;
30048;SDS011;16879;50.852;15.602;2024-01-30T06:19:39;96.45;;;43.63;;
30048;SDS011;16879;50.852;15.602;2024-01-30T06:22:04;91.60;;;41.05;;
30048;SDS011;16879;50.852;15.602;2024-01-30T06:24:30;139.70;;;60.47;;
30048;SDS011;16879;50.852;15.602;2024-01-30T06:26:57;133.80;;;63.20;;
30048;SDS011;16879;50.852;15.602;2024-01-30T06:29:23;132.00;;;59.33;;
30048;SDS011;16879;50.852;15.602;2024-01-30T06:31:51;115.47;;;50.35;;
30048;SDS011;16879;50.852;15.602;2024-01-30T06:34:18;116.43;;;58.17;;
30048;SDS011;16879;50.852;15.602;2024-01-30T06:36:44;122.97;;;57.65;;
30048;SDS011;16879;50.852;15.602;2024-01-30T06:39:10;122.40;;;54.72;;
30048;SDS011;16879;50.852;15.602;2024-01-30T06:41:36;119.57;;;56.95;;
30048;SDS011;16879;50.852;15.602;2024-01-30T06:44:02;126.97;;;58.60;;
30048;SDS011;16879;50.852;15.602;2024-01-30T06:46:33;113.35;;;54.90;;
30048;SDS011;16879;50.852;15.602;2024-01-30T06:48:59;118.97;;;55.50;;
30048;SDS011;16879;50.852;15.602;2024-01-30T06:51:25;138.57;;;55.10;;
30048;SDS011;16879;50.852;15.602;2024-01-30T06:53:51;134.50;;;55.35;;
30048;SDS011;16879;50.852;15.602;2024-01-30T06:56:17;117.15;;;48.40;;
30048;SDS011;16879;50.852;15.602;2024-01-30T06:58:48;116.75;;;51.22;;
30048;SDS011;16879;50.852;15.602;2024-01-30T07:01:15;140.82;;;51.30;;
30048;SDS011;16879;50.852;15.602;2024-01-30T07:03:42;143.00;;;53.00;;
30048;SDS011;16879;50.852;15.602;2024-01-30T07:06:08;144.68;;;53.97;;
30048;SDS011;16879;50.852;15.602;2024-01-30T07:08:37;105.30;;;41.88;;
30048;SDS011;16879;50.852;15.602;2024-01-30T07:11:06;110.50;;;42.95;;
30048;SDS011;16879;50.852;15.602;2024-01-30T07:13:33;97.75;;;41.72;;
30048;SDS011;16879;50.852;15.602;2024-01-30T07:16:00;89.25;;;38.50;;
30048;SDS011;16879;50.852;15.602;2024-01-30T07:18:26;127.75;;;52.10;;
30048;SDS011;16879;50.852;15.602;2024-01-30T07:20:52;129.73;;;51.72;;
30048;SDS011;16879;50.852;15.602;2024-01-30T07:23:18;216.65;;;82.75;;
30048;SDS011;16879;50.852;15.602;2024-01-30T07:25:44;163.75;;;70.43;;
30048;SDS011;16879;50.852;15.602;2024-01-30T07:28:11;172.57;;;76.38;;
30048;SDS011;16879;50.852;15.602;2024-01-30T07:30:41;177.13;;;75.13;;
30048;SDS011;16879;50.852;15.602;2024-01-30T07:33:07;185.15;;;77.63;;
30048;SDS011;16879;50.852;15.602;2024-01-30T07:35:33;183.63;;;80.00;;
30048;SDS011;16879;50.852;15.602;2024-01-30T07:38:00;200.43;;;84.63;;
30048;SDS011;16879;50.852;15.602;2024-01-30T07:40:26;174.90;;;74.18;;
30048;SDS011;16879;50.852;15.602;2024-01-30T07:42:55;185.68;;;78.90;;
30048;SDS011;16879;50.852;15.602;2024-01-30T07:45:21;181.25;;;76.93;;
30048;SDS011;16879;50.852;15.602;2024-01-30T07:47:50;167.93;;;73.50;;
30048;SDS011;16879;50.852;15.602;2024-01-30T07:50:16;172.45;;;70.65;;
30048;SDS011;16879;50.852;15.602;2024-01-30T07:52:43;167.95;;;70.90;;
30048;SDS011;16879;50.852;15.602;2024-01-30T07:55:09;153.63;;;64.68;;
30048;SDS011;16879;50.852;15.602;2024-01-30T07:57:40;147.55;;;68.00;;
30048;SDS011;16879;50.852;15.602;2024-01-30T08:00:07;179.02;;;74.55;;
30048;SDS011;16879;50.852;15.602;2024-01-30T08:02:33;162.32;;;72.90;;
30048;SDS011;16879;50.852;15.602;2024-01-30T08:04:59;167.38;;;71.20;;
30048;SDS011;16879;50.852;15.602;2024-01-30T08:07:24;156.35;;;69.20;;
30048;SDS011;16879;50.852;15.602;2024-01-30T08:09:51;163.73;;;74.13;;
30048;SDS011;16879;50.852;15.602;2024-01-30T08:12:19;163.68;;;72.43;;
30048;SDS011;16879;50.852;15.602;2024-01-30T08:14:45;158.25;;;74.22;;
30048;SDS011;16879;50.852;15.602;2024-01-30T08:17:11;153.40;;;75.85;;
30048;SDS011;16879;50.852;15.602;2024-01-30T08:19:37;138.10;;;69.85;;
30048;SDS011;16879;50.852;15.602;2024-01-30T08:22:03;132.35;;;71.75;;
30048;SDS011;16879;50.852;15.602;2024-01-30T08:24:29;121.63;;;66.20;;
30048;SDS011;16879;50.852;15.602;2024-01-30T08:26:55;122.40;;;65.30;;
30048;SDS011;16879;50.852;15.602;2024-01-30T08:29:21;117.35;;;66.88;;
30048;SDS011;16879;50.852;15.602;2024-01-30T08:31:47;106.82;;;57.85;;
30048;SDS011;16879;50.852;15.602;2024-01-30T08:34:12;75.43;;;44.90;;
30048;SDS011;16879;50.852;15.602;2024-01-30T08:36:38;80.45;;;45.95;;
30048;SDS011;16879;50.852;15.602;2024-01-30T08:39:04;68.05;;;41.05;;
30048;SDS011;16879;50.852;15.602;2024-01-30T08:41:30;105.55;;;48.80;;
30048;SDS011;16879;50.852;15.602;2024-01-30T08:43:56;234.93;;;76.00;;
30048;SDS011;16879;50.852;15.602;2024-01-30T08:46:22;161.05;;;60.83;;
30048;SDS011;16879;50.852;15.602;2024-01-30T08:48:48;125.30;;;46.15;;
30048;SDS011;16879;50.852;15.602;2024-01-30T08:51:14;81.65;;;35.88;;
30048;SDS011;16879;50.852;15.602;2024-01-30T08:53:40;83.80;;;36.38;;
30048;SDS011;16879;50.852;15.602;2024-01-30T08:56:06;65.97;;;33.13;;
30048;SDS011;16879;50.852;15.602;2024-01-30T08:58:33;68.22;;;30.60;;
30048;SDS011;16879;50.852;15.602;2024-01-30T09:00:58;84.30;;;35.97;;
30048;SDS011;16879;50.852;15.602;2024-01-30T09:03:25;46.90;;;23.05;;
30048;SDS011;16879;50.852;15.602;2024-01-30T09:05:50;45.40;;;23.23;;
30048;SDS011;16879;50.852;15.602;2024-01-30T09:08:17;35.13;;;20.40;;
30048;SDS011;16879;50.852;15.602;2024-01-30T09:10:43;27.63;;;16.65;;
30048;SDS011;16879;50.852;15.602;2024-01-30T09:13:09;30.80;;;17.67;;
30048;SDS011;16879;50.852;15.602;2024-01-30T09:15:35;33.95;;;21.10;;
30048;SDS011;16879;50.852;15.602;2024-01-30T09:18:01;29.80;;;16.60;;
30048;SDS011;16879;50.852;15.602;2024-01-30T09:20:27;28.58;;;16.67;;
30048;SDS011;16879;50.852;15.602;2024-01-30T09:22:52;31.33;;;18.48;;
30048;SDS011;16879;50.852;15.602;2024-01-30T09:25:18;26.88;;;16.10;;
30048;SDS011;16879;50.852;15.602;2024-01-30T09:27:44;26.80;;;16.63;;
30048;SDS011;16879;50.852;15.602;2024-01-30T09:30:10;26.67;;;14.95;;
30048;SDS011;16879;50.852;15.602;2024-01-30T09:32:37;26.80;;;17.85;;
30048;SDS011;16879;50.852;15.602;2024-01-30T09:35:05;21.83;;;15.30;;
30048;SDS011;16879;50.852;15.602;2024-01-30T09:37:31;29.73;;;16.02;;
30048;SDS011;16879;50.852;15.602;2024-01-30T09:39:57;28.48;;;17.48;;
30048;SDS011;16879;50.852;15.602;2024-01-30T09:42:27;23.92;;;16.58;;
30048;SDS011;16879;50.852;15.602;2024-01-30T09:45:05;32.13;;;18.48;;
30048;SDS011;16879;50.852;15.602;2024-01-30T09:47:31;25.77;;;16.95;;
30048;SDS011;16879;50.852;15.602;2024-01-30T09:50:01;25.15;;;15.70;;
30048;SDS011;16879;50.852;15.602;2024-01-30T09:52:28;25.23;;;15.10;;
30048;SDS011;16879;50.852;15.602;2024-01-30T09:54:54;23.08;;;14.63;;
30048;SDS011;16879;50.852;15.602;2024-01-30T09:57:20;23.95;;;14.82;;
30048;SDS011;16879;50.852;15.602;2024-01-30T09:59:47;31.77;;;16.35;;
30048;SDS011;16879;50.852;15.602;2024-01-30T10:02:13;29.15;;;15.80;;
30048;SDS011;16879;50.852;15.602;2024-01-30T10:04:39;28.08;;;15.10;;
30048;SDS011;16879;50.852;15.602;2024-01-30T10:07:05;24.65;;;17.83;;
30048;SDS011;16879;50.852;15.602;2024-01-30T10:09:32;32.10;;;16.95;;
30048;SDS011;16879;50.852;15.602;2024-01-30T10:11:59;41.20;;;26.05;;
30048;SDS011;16879;50.852;15.602;2024-01-30T10:14:26;39.70;;;28.10;;
30048;SDS011;16879;50.852;15.602;2024-01-30T10:16:52;44.75;;;29.13;;
30048;SDS011;16879;50.852;15.602;2024-01-30T10:19:18;40.20;;;26.20;;
30048;SDS011;16879;50.852;15.602;2024-01-30T10:21:44;43.65;;;28.13;;
30048;SDS011;16879;50.852;15.602;2024-01-30T10:24:11;39.92;;;26.33;;
30048;SDS011;16879;50.852;15.602;2024-01-30T10:26:40;44.42;;;28.63;;
30048;SDS011;16879;50.852;15.602;2024-01-30T10:29:06;56.42;;;32.88;;
30048;SDS011;16879;50.852;15.602;2024-01-30T10:31:32;58.22;;;33.83;;
30048;SDS011;16879;50.852;15.602;2024-01-30T10:33:58;50.42;;;30.38;;
30048;SDS011;16879;50.852;15.602;2024-01-30T10:36:27;48.83;;;30.63;;
30048;SDS011;16879;50.852;15.602;2024-01-30T10:38:55;53.28;;;29.73;;
30048;SDS011;16879;50.852;15.602;2024-01-30T10:44:08;51.92;;;28.02;;
30048;SDS011;16879;50.852;15.602;2024-01-30T10:46:35;41.50;;;27.05;;
30048;SDS011;16879;50.852;15.602;2024-01-30T10:49:03;37.80;;;21.83;;
30048;SDS011;16879;50.852;15.602;2024-01-30T10:51:31;34.45;;;22.65;;
30048;SDS011;16879;50.852;15.602;2024-01-30T10:53:57;34.90;;;21.35;;
30048;SDS011;16879;50.852;15.602;2024-01-30T10:56:24;29.67;;;20.13;;
30048;SDS011;16879;50.852;15.602;2024-01-30T10:58:50;33.78;;;21.67;;
30048;SDS011;16879;50.852;15.602;2024-01-30T11:01:18;39.50;;;22.20;;
30048;SDS011;16879;50.852;15.602;2024-01-30T11:03:45;42.85;;;26.05;;
30048;SDS011;16879;50.852;15.602;2024-01-30T11:06:11;43.55;;;24.77;;
30048;SDS011;16879;50.852;15.602;2024-01-30T11:08:43;53.72;;;29.98;;
30048;SDS011;16879;50.852;15.602;2024-01-30T11:11:12;52.03;;;29.52;;
30048;SDS011;16879;50.852;15.602;2024-01-30T11:13:38;52.50;;;30.70;;
30048;SDS011;16879;50.852;15.602;2024-01-30T11:16:04;43.70;;;27.65;;
30048;SDS011;16879;50.852;15.602;2024-01-30T11:18:31;47.33;;;29.17;;
30048;SDS011;16879;50.852;15.602;2024-01-30T11:21:01;45.35;;;27.88;;
30048;SDS011;16879;50.852;15.602;2024-01-30T11:23:30;49.08;;;29.23;;
30048;SDS011;16879;50.852;15.602;2024-01-30T11:25:56;52.63;;;30.40;;
30048;SDS011;16879;50.852;15.602;2024-01-30T11:28:23;42.15;;;29.38;;
30048;SDS011;16879;50.852;15.602;2024-01-30T11:30:49;57.10;;;33.88;;
30048;SDS011;16879;50.852;15.602;2024-01-30T11:33:28;58.75;;;33.55;;
30048;SDS011;16879;50.852;15.602;2024-01-30T11:35:58;53.13;;;33.28;;
30048;SDS011;16879;50.852;15.602;2024-01-30T11:38:25;61.95;;;38.13;;
30048;SDS011;16879;50.852;15.602;2024-01-30T11:40:52;62.15;;;34.65;;
30048;SDS011;16879;50.852;15.602;2024-01-30T11:43:18;58.70;;;33.90;;
30048;SDS011;16879;50.852;15.602;2024-01-30T11:45:45;58.58;;;34.63;;
30048;SDS011;16879;50.852;15.602;2024-01-30T11:48:11;54.17;;;35.95;;
30048;SDS011;16879;50.852;15.602;2024-01-30T11:50:38;51.17;;;32.20;;
30048;SDS011;16879;50.852;15.602;2024-01-30T11:53:09;52.60;;;33.58;;
30048;SDS011;16879;50.852;15.602;2024-01-30T11:55:36;51.63;;;30.98;;
30048;SDS011;16879;50.852;15.602;2024-01-30T11:58:06;49.28;;;30.75;;
30048;SDS011;16879;50.852;15.602;2024-01-30T12:00:33;49.08;;;32.10;;
30048;SDS011;16879;50.852;15.602;2024-01-30T12:02:59;54.95;;;34.60;;
30048;SDS011;16879;50.852;15.602;2024-01-30T12:05:26;53.95;;;32.78;;
30048;SDS011;16879;50.852;15.602;2024-01-30T12:07:52;46.08;;;31.70;;
30048;SDS011;16879;50.852;15.602;2024-01-30T12:10:18;48.92;;;32.40;;
30048;SDS011;16879;50.852;15.602;2024-01-30T12:12:46;45.97;;;30.95;;
30048;SDS011;16879;50.852;15.602;2024-01-30T12:15:12;44.40;;;29.13;;
30048;SDS011;16879;50.852;15.602;2024-01-30T12:17:39;43.17;;;27.40;;
30048;SDS011;16879;50.852;15.602;2024-01-30T12:20:09;41.50;;;25.30;;
30048;SDS011;16879;50.852;15.602;2024-01-30T12:22:39;35.25;;;23.48;;
30048;SDS011;16879;50.852;15.602;2024-01-30T12:25:09;33.97;;;23.33;;
30048;SDS011;16879;50.852;15.602;2024-01-30T12:27:36;35.95;;;22.00;;
30048;SDS011;16879;50.852;15.602;2024-01-30T12:30:09;45.40;;;27.08;;
30048;SDS011;16879;50.852;15.602;2024-01-30T12:32:35;35.10;;;23.50;;
30048;SDS011;16879;50.852;15.602;2024-01-30T12:35:02;35.30;;;22.05;;
30048;SDS011;16879;50.852;15.602;2024-01-30T12:37:29;36.25;;;22.25;;
30048;SDS011;16879;50.852;15.602;2024-01-30T12:39:55;33.63;;;21.52;;
30048;SDS011;16879;50.852;15.602;2024-01-30T12:42:21;36.83;;;22.33;;
30048;SDS011;16879;50.852;15.602;2024-01-30T12:44:48;37.45;;;24.98;;
30048;SDS011;16879;50.852;15.602;2024-01-30T12:47:14;33.25;;;22.45;;
30048;SDS011;16879;50.852;15.602;2024-01-30T12:49:42;44.65;;;26.73;;
30048;SDS011;16879;50.852;15.602;2024-01-30T12:52:09;35.78;;;26.27;;
30048;SDS011;16879;50.852;15.602;2024-01-30T12:54:35;39.88;;;25.30;;
30048;SDS011;16879;50.852;15.602;2024-01-30T12:57:01;41.15;;;26.52;;
30048;SDS011;16879;50.852;15.602;2024-01-30T12:59:27;41.75;;;27.65;;
30048;SDS011;16879;50.852;15.602;2024-01-30T13:01:53;53.67;;;29.10;;
30048;SDS011;16879;50.852;15.602;2024-01-30T13:04:18;38.78;;;26.50;;
30048;SDS011;16879;50.852;15.602;2024-01-30T13:06:45;45.08;;;27.60;;
30048;SDS011;16879;50.852;15.602;2024-01-30T13:09:11;52.65;;;30.98;;
30048;SDS011;16879;50.852;15.602;2024-01-30T13:11:37;54.70;;;28.50;;
30048;SDS011;16879;50.852;15.602;2024-01-30T13:14:03;58.30;;;33.63;;
30048;SDS011;16879;50.852;15.602;2024-01-30T13:16:29;50.47;;;30.08;;
30048;SDS011;16879;50.852;15.602;2024-01-30T13:18:55;56.67;;;32.25;;
30048;SDS011;16879;50.852;15.602;2024-01-30T13:21:21;58.38;;;36.10;;
30048;SDS011;16879;50.852;15.602;2024-01-30T13:23:47;44.80;;;29.95;;
30048;SDS011;16879;50.852;15.602;2024-01-30T13:28:47;37.65;;;23.77;;
30048;SDS011;16879;50.852;15.602;2024-01-30T13:31:16;44.45;;;26.73;;
30048;SDS011;16879;50.852;15.602;2024-01-30T13:33:43;64.22;;;32.38;;
30048;SDS011;16879;50.852;15.602;2024-01-30T13:36:09;54.53;;;29.83;;
30048;SDS011;16879;50.852;15.602;2024-01-30T13:38:36;39.55;;;23.30;;
30048;SDS011;16879;50.852;15.602;2024-01-30T13:41:02;34.97;;;20.85;;
30048;SDS011;16879;50.852;15.602;2024-01-30T13:43:28;29.88;;;18.27;;
30048;SDS011;16879;50.852;15.602;2024-01-30T13:45:54;23.40;;;15.65;;
30048;SDS011;16879;50.852;15.602;2024-01-30T13:48:21;23.13;;;15.07;;
30048;SDS011;16879;50.852;15.602;2024-01-30T13:50:47;20.20;;;13.70;;
30048;SDS011;16879;50.852;15.602;2024-01-30T13:53:13;22.83;;;13.30;;
30048;SDS011;16879;50.852;15.602;2024-01-30T13:55:39;21.77;;;13.13;;
30048;SDS011;16879;50.852;15.602;2024-01-30T13:58:06;19.08;;;12.25;;
30048;SDS011;16879;50.852;15.602;2024-01-30T14:00:32;20.45;;;12.63;;
30048;SDS011;16879;50.852;15.602;2024-01-30T14:02:59;18.52;;;12.35;;
30048;SDS011;16879;50.852;15.602;2024-01-30T14:05:25;20.08;;;11.88;;
30048;SDS011;16879;50.852;15.602;2024-01-30T14:07:53;19.27;;;11.57;;